Time;durP1;ratioP1;P1;durP2;ratioP2;P2;SDS_P1;SDS_P2;PMS_P1;PMS_P2;Temp;Humidity;BMP_temperature;BMP_pressure;BME280_temperature;BME280_humidity;BME280_pressure;Samples;Min_cycle;Max_cycle;Signal;HPM_P1;HPM_P2
2022/07/04 00:02:13;;;;;;;8.85;4.55;;;;;;;11.48;100.00;163566.25;4990960;28;20099;-61
2022/07/04 00:04:39;;;;;;;5.38;4.97;;;;;;;11.42;100.00;163551.44;4987985;28;20030;-61
2022/07/04 00:07:04;;;;;;;5.10;4.68;;;;;;;11.35;100.00;163532.53;4971154;28;20031;-62
2022/07/04 00:09:29;;;;;;;12.05;5.90;;;;;;;11.30;100.00;163519.00;4971708;28;20042;-62
2022/07/04 00:11:55;;;;;;;6.00;5.50;;;;;;;11.29;100.00;163516.28;4970388;28;20039;-61
2022/07/04 00:14:20;;;;;;;6.35;5.82;;;;;;;11.23;100.00;163500.09;4974034;28;20022;-62
2022/07/04 00:16:46;;;;;;;5.72;5.05;;;;;;;11.17;100.00;163483.91;4987873;28;20521;-61
2022/07/04 00:19:11;;;;;;;7.68;5.65;;;;;;;11.14;100.00;163475.78;4989702;28;20038;-62
2022/07/04 00:21:36;;;;;;;6.05;5.10;;;;;;;11.09;100.00;163465.00;4971056;28;20131;-61
2022/07/04 00:24:02;;;;;;;6.93;6.10;;;;;;;11.07;100.00;163458.25;4971395;28;20034;-62
2022/07/04 00:26:27;;;;;;;5.68;5.25;;;;;;;11.08;100.00;163460.97;4970107;28;20043;-60
2022/07/04 00:28:53;;;;;;;12.52;6.88;;;;;;;11.08;100.00;163460.97;4971277;28;20498;-60
2022/07/04 00:31:19;;;;;;;9.32;6.22;;;;;;;11.09;100.00;163465.00;4985123;28;20089;-60
2022/07/04 00:33:44;;;;;;;9.65;6.57;;;;;;;11.12;100.00;163471.75;4988470;28;20026;-60
2022/07/04 00:36:09;;;;;;;7.72;6.65;;;;;;;11.12;100.00;163471.75;4969460;28;20065;-60
2022/07/04 00:38:35;;;;;;;6.63;6.03;;;;;;;11.13;100.00;163473.13;4971605;28;20027;-60
2022/07/04 00:41:00;;;;;;;6.43;5.82;;;;;;;10.97;100.00;163431.22;4982128;28;20046;-60
2022/07/04 00:43:28;;;;;;;8.88;5.88;;;;;;;11.08;100.00;163460.97;4973946;28;20541;-60
2022/07/04 00:45:53;;;;;;;6.15;5.63;;;;;;;11.04;100.00;163451.50;4985344;28;20050;-61
2022/07/04 00:48:19;;;;;;;7.95;5.85;;;;;;;11.01;100.00;163443.38;4990606;28;20022;-60
2022/07/04 00:50:46;;;;;;;5.78;5.25;;;;;;;10.95;100.00;163427.19;4980335;28;20042;-60
2022/07/04 00:53:16;;;;;;;6.85;6.35;;;;;;;10.77;100.00;163381.28;4971237;28;20034;-60
2022/07/04 00:55:42;;;;;;;6.28;5.78;;;;;;;10.71;100.00;163365.09;4988330;28;20050;-59
2022/07/04 00:58:08;;;;;;;12.20;5.88;;;;;;;10.79;100.00;163386.69;4990301;28;20101;-59
2022/07/04 01:00:33;;;;;;;6.00;5.50;;;;;;;10.74;100.00;163371.84;4988864;28;20185;-62
2022/07/04 01:02:59;;;;;;;6.80;6.10;;;;;;;10.70;100.00;163362.38;4990235;28;20026;-63
2022/07/04 01:05:25;;;;;;;6.60;6.00;;;;;;;10.68;100.00;163355.63;4981719;28;20047;-62
2022/07/04 01:07:50;;;;;;;7.40;6.72;;;;;;;10.65;100.00;163347.56;4990669;28;20041;-62
2022/07/04 01:10:16;;;;;;;7.78;6.70;;;;;;;10.64;100.00;163346.19;4988266;28;20842;-62
2022/07/04 01:12:41;;;;;;;8.70;6.57;;;;;;;10.43;100.00;163290.84;4971115;28;20082;-62
2022/07/04 01:15:07;;;;;;;6.15;5.53;;;;;;;10.62;100.00;163340.78;4980085;28;20541;-62
2022/07/04 01:17:33;;;;;;;6.07;5.68;;;;;;;10.55;100.00;163321.88;4994298;28;20077;-62
2022/07/04 01:19:59;;;;;;;6.25;5.65;;;;;;;10.48;100.00;163305.69;4992167;28;20038;-62
2022/07/04 01:22:24;;;;;;;9.60;8.07;;;;;;;10.45;100.00;163296.25;4993967;28;20030;-62
2022/07/04 01:24:50;;;;;;;8.95;8.15;;;;;;;10.43;100.00;163292.22;4990513;28;20030;-62
2022/07/04 01:27:16;;;;;;;7.75;6.55;;;;;;;10.44;100.00;163293.53;4991712;28;20501;-62
2022/07/04 01:29:41;;;;;;;7.78;6.85;;;;;;;10.34;100.00;163267.84;4992167;28;20459;-62
2022/07/04 01:32:09;;;;;;;7.68;6.57;;;;;;;10.45;100.00;163297.63;4993587;28;20105;-62
2022/07/04 01:34:36;;;;;;;7.47;6.72;;;;;;;10.44;100.00;163294.91;4992450;28;20090;-61
2022/07/04 01:37:01;;;;;;;8.82;7.50;;;;;;;10.41;100.00;163286.81;4992370;28;20026;-61
2022/07/04 01:39:28;;;;;;;48.15;8.43;;;;;;;10.36;100.00;163273.25;4990392;28;20093;-61
2022/07/04 01:41:53;;;;;;;6.28;5.78;;;;;;;10.31;100.00;163259.78;4990402;28;20038;-62
2022/07/04 01:44:20;;;;;;;8.25;5.78;;;;;;;10.24;100.00;163242.22;4993119;28;20023;-60
2022/07/04 01:46:45;;;;;;;5.93;5.30;;;;;;;10.20;100.00;163230.06;4980873;28;20046;-60
2022/07/04 01:49:10;;;;;;;8.45;5.13;;;;;;;10.13;100.00;163213.88;4973995;28;20471;-61
2022/07/04 01:51:43;;;;;;;12.32;6.05;;;;;;;10.06;100.00;163195.00;4973389;28;20050;-61
2022/07/04 01:54:09;;;;;;;33.63;7.47;;;;;;;10.02;100.00;163184.19;4973945;28;20050;-61
2022/07/04 01:56:34;;;;;;;5.82;5.43;;;;;;;9.99;100.00;163176.09;4974170;28;20514;-61
2022/07/04 01:59:01;;;;;;;5.63;5.13;;;;;;;9.96;100.00;163169.38;4973443;28;20022;-61
2022/07/04 02:01:29;;;;;;;6.78;6.28;;;;;;;9.97;100.00;163172.06;4971063;28;20461;-61
2022/07/04 02:03:55;;;;;;;7.20;6.50;;;;;;;9.99;100.00;163176.09;4982509;28;20030;-62
2022/07/04 02:06:21;;;;;;;7.15;6.20;;;;;;;9.98;100.00;163173.41;4989758;28;20042;-62
2022/07/04 02:13:00;;;;;;;7.80;7.20;;;;;;;9.98;100.00;163173.41;4990437;28;20065;-62
2022/07/04 02:14:15;;;;;;;30.02;4.82;;;;;;;9.96;100.00;163168.00;4992614;28;20034;-62
2022/07/04 02:16:40;;;;;;;60.00;4.78;;;;;;;9.89;100.00;163149.09;4991547;28;20413;-62
2022/07/04 02:19:06;;;;;;;113.90;7.90;;;;;;;9.83;100.00;163135.63;4992501;28;20029;-62
2022/07/04 02:21:31;;;;;;;14.00;6.55;;;;;;;9.78;100.00;163122.16;4975292;28;20097;-62
2022/07/04 02:23:56;;;;;;;7.18;6.68;;;;;;;9.64;100.00;163084.38;4991425;28;20030;-61
2022/07/04 02:26:22;;;;;;;7.93;7.15;;;;;;;9.77;100.00;163119.44;4990619;28;20049;-61
2022/07/04 02:28:47;;;;;;;36.53;8.45;;;;;;;9.78;100.00;163120.78;4992436;28;20112;-61
2022/07/04 02:31:12;;;;;;;45.92;6.75;;;;;;;9.78;100.00;163122.16;4975657;28;20043;-63
2022/07/04 02:33:38;;;;;;;9.98;5.93;;;;;;;9.74;100.00;163111.34;4973485;28;20442;-61
2022/07/04 02:36:03;;;;;;;6.25;5.75;;;;;;;9.75;100.00;163112.72;4971335;28;20046;-62
2022/07/04 02:38:29;;;;;;;83.85;6.40;;;;;;;9.74;100.00;163110.00;4973145;28;20023;-61
2022/07/04 02:40:54;;;;;;;9.50;5.57;;;;;;;9.68;100.00;163095.16;4983436;28;20398;-61
2022/07/04 02:43:20;;;;;;;11.40;6.25;;;;;;;9.63;100.00;163081.69;4991947;28;20062;-61
2022/07/04 02:45:45;;;;;;;9.00;7.10;;;;;;;9.58;100.00;163069.53;4988863;28;20038;-62
2022/07/04 02:48:10;;;;;;;37.47;5.75;;;;;;;9.57;100.00;163065.50;4988207;28;20031;-61
2022/07/04 02:50:36;;;;;;;200.57;10.98;;;;;;;9.55;100.00;163060.09;4979720;28;20030;-62
2022/07/04 02:53:01;;;;;;;192.98;10.32;;;;;;;9.44;100.00;163033.09;4982914;28;20014;-62
2022/07/04 02:55:26;;;;;;;58.15;6.85;;;;;;;9.37;100.00;163014.22;4978918;28;20050;-62
2022/07/04 02:57:52;;;;;;;15.60;6.68;;;;;;;9.31;100.00;162998.03;4981662;28;20030;-62
2022/07/04 03:00:17;;;;;;;7.90;5.88;;;;;;;9.25;100.00;162981.84;4981224;28;20039;-61
2022/07/04 03:02:42;;;;;;;33.13;7.63;;;;;;;9.24;100.00;162979.16;4981150;28;20470;-62
2022/07/04 03:05:08;;;;;;;145.00;9.90;;;;;;;9.24;100.00;162979.16;4980516;28;20069;-61
2022/07/04 03:07:33;;;;;;;120.93;9.45;;;;;;;9.21;100.00;162972.41;4982175;28;20026;-61
2022/07/04 03:09:58;;;;;;;33.40;6.82;;;;;;;9.18;100.00;162965.69;4980407;28;20042;-61
2022/07/04 03:12:24;;;;;;;11.70;7.45;;;;;;;9.17;100.00;162962.97;4980640;28;20029;-61
2022/07/04 03:14:49;;;;;;;10.75;9.85;;;;;;;9.19;100.00;162967.00;4979958;28;20073;-58
2022/07/04 03:17:14;;;;;;;14.18;7.93;;;;;;;9.21;100.00;162973.75;4982448;28;20030;-60
2022/07/04 03:19:40;;;;;;;15.25;7.97;;;;;;;9.22;100.00;162975.13;4978562;28;20763;-60
2022/07/04 03:22:05;;;;;;;13.43;8.48;;;;;;;9.20;100.00;162971.03;4982231;28;20022;-60
2022/07/04 03:24:30;;;;;;;13.93;7.53;;;;;;;9.20;100.00;162971.03;4980315;28;20027;-61
2022/07/04 03:26:56;;;;;;;9.05;7.30;;;;;;;9.21;100.00;162972.41;4980162;28;20054;-61
2022/07/04 03:29:21;;;;;;;13.00;7.47;;;;;;;9.20;100.00;162969.72;4980417;28;20045;-61
2022/07/04 03:31:47;;;;;;;7.95;5.43;;;;;;;9.19;100.00;162968.38;4980731;28;20049;-60
2022/07/04 03:34:12;;;;;;;4.88;3.97;;;;;;;9.15;100.00;162957.56;4980940;28;20023;-60
2022/07/04 03:36:37;;;;;;;5.50;3.83;;;;;;;9.11;100.00;162946.81;4976250;28;20038;-60
2022/07/04 03:39:03;;;;;;;5.00;4.47;;;;;;;9.05;100.00;162930.59;4981997;28;20398;-60
2022/07/04 03:41:28;;;;;;;27.15;8.00;;;;;;;9.01;100.00;162919.81;4977767;28;20047;-61
2022/07/04 03:43:54;;;;;;;9.82;9.02;;;;;;;8.99;100.00;162915.78;4980740;28;20018;-61
2022/07/04 03:46:19;;;;;;;15.35;11.73;;;;;;;9.00;100.00;162918.50;4979315;28;20038;-61
2022/07/04 03:48:44;;;;;;;16.80;12.73;;;;;;;9.01;100.00;162921.16;4980069;28;20653;-61
2022/07/04 03:51:12;;;;;;;14.30;12.80;;;;;;;9.07;100.00;162936.00;4979661;28;20083;-61
2022/07/04 03:53:37;;;;;;;16.35;13.25;;;;;;;8.98;100.00;162911.72;4981964;28;20518;-61
2022/07/04 03:56:03;;;;;;;19.63;15.23;;;;;;;9.17;100.00;162962.97;4977887;28;20042;-62
2022/07/04 03:58:28;;;;;;;13.77;12.48;;;;;;;9.12;100.00;162948.13;4981656;28;20105;-62
2022/07/04 04:00:53;;;;;;;15.20;13.60;;;;;;;9.29;100.00;162992.63;4980665;28;20069;-63
2022/07/04 04:06:02;;;;;;;17.15;15.02;;;;;;;9.38;100.00;163016.91;4979806;28;20121;-62
2022/07/04 04:08:28;;;;;;;20.20;17.15;;;;;;;9.45;100.00;163035.81;4983379;28;20023;-62
2022/07/04 04:10:53;;;;;;;22.30;19.10;;;;;;;9.48;100.00;163043.91;4978822;28;20038;-62
2022/07/04 04:13:18;;;;;;;27.38;19.58;;;;;;;9.60;100.00;163074.94;4981330;28;20045;-62
2022/07/04 04:15:44;;;;;;;18.35;15.95;;;;;;;9.68;100.00;163095.16;4975914;28;20038;-61
2022/07/04 04:18:10;;;;;;;16.90;15.02;;;;;;;9.72;100.00;163104.59;4979581;28;20034;-61
2022/07/04 04:20:35;;;;;;;18.08;16.17;;;;;;;9.77;100.00;163119.44;4977853;28;20046;-61
2022/07/04 04:23:00;;;;;;;19.98;16.17;;;;;;;9.84;100.00;163136.97;4981486;28;20023;-62
2022/07/04 04:25:26;;;;;;;22.45;20.20;;;;;;;9.95;100.00;163165.28;4979200;28;20188;-61
2022/07/04 04:27:51;;;;;;;24.70;21.48;;;;;;;9.86;100.00;161140.06;4979984;28;20113;-61
2022/07/04 04:30:16;;;;;;;27.08;21.33;;;;;;;10.13;100.00;158006.41;4978962;28;20052;-61
2022/07/04 04:32:42;;;;;;;21.42;19.23;;;;;;;10.24;100.00;155124.94;4981377;28;20046;-61
2022/07/04 04:35:08;;;;;;;25.13;22.52;;;;;;;10.36;100.00;153039.88;4985947;28;20564;-61
2022/07/04 04:37:33;;;;;;;29.83;21.70;;;;;;;10.44;100.00;150592.78;5016420;28;20025;-62
2022/07/04 04:39:58;;;;;;;22.00;19.75;;;;;;;10.53;100.00;147794.22;5014656;28;20045;-61
2022/07/04 04:42:24;;;;;;;22.80;19.15;;;;;;;10.64;100.00;146060.09;5020486;28;20021;-61
2022/07/04 04:44:49;;;;;;;45.13;21.23;;;;;;;10.72;100.00;144669.81;5015303;28;20037;-61
2022/07/04 04:47:15;;;;;;;24.13;20.48;;;;;;;10.85;100.00;143291.38;5008293;28;20026;-61
2022/07/04 04:49:40;;;;;;;19.92;18.08;;;;;;;10.95;100.00;141907.03;5009204;28;20022;-61
2022/07/04 04:52:06;;;;;;;20.85;18.65;;;;;;;11.12;100.00;139833.97;4987498;28;20156;-61
2022/07/04 04:54:32;;;;;;;25.27;18.77;;;;;;;11.23;100.00;139154.34;4982619;28;20147;-60
2022/07/04 04:56:58;;;;;;;24.15;17.38;;;;;;;11.34;100.00;138475.75;4982952;28;20022;-61
2022/07/04 04:59:23;;;;;;;24.83;19.95;;;;;;;11.46;100.00;137445.13;4985396;28;20014;-61
2022/07/04 05:01:48;;;;;;;18.63;16.67;;;;;;;11.58;100.00;136768.47;4982445;28;20042;-60
2022/07/04 05:04:14;;;;;;;19.50;17.20;;;;;;;11.69;100.00;136089.44;4983457;28;20096;-61
2022/07/04 05:06:40;;;;;;;21.42;18.50;;;;;;;11.80;100.00;135056.22;4983648;28;20046;-61
2022/07/04 05:09:05;;;;;;;16.50;14.90;;;;;;;11.89;100.00;134372.47;4982390;28;20034;-61
2022/07/04 05:11:31;;;;;;;18.02;15.88;;;;;;;11.99;100.00;133689.81;4973120;28;20042;-62
2022/07/04 05:13:56;;;;;;;18.70;15.43;;;;;;;12.08;100.00;133004.78;4974333;28;20014;-62
2022/07/04 05:16:21;;;;;;;17.50;14.82;;;;;;;12.19;100.00;132325.09;4973331;28;20469;-62
2022/07/04 05:18:47;;;;;;;17.45;14.10;;;;;;;12.33;100.00;131651.75;4974575;28;20483;-62
2022/07/04 05:21:12;;;;;;;13.95;12.45;;;;;;;12.47;100.00;132031.72;4972974;28;20407;-57
2022/07/04 05:23:37;;;;;;;18.88;13.48;;;;;;;12.59;100.00;133113.81;4974663;28;20027;-57
2022/07/04 05:26:03;;;;;;;13.20;11.80;;;;;;;12.69;100.00;134896.75;4972598;28;20097;-57
2022/07/04 05:28:28;;;;;;;24.08;12.60;;;;;;;12.67;100.00;136654.16;4974435;28;20047;-58
2022/07/04 05:30:53;;;;;;;15.35;12.13;;;;;;;12.94;100.00;138828.50;4973216;28;20524;-58
2022/07/04 05:33:19;;;;;;;14.48;10.45;;;;;;;13.08;100.00;140622.72;4974067;28;20023;-58
2022/07/04 05:35:44;;;;;;;12.10;10.75;;;;;;;13.18;100.00;146299.88;4972810;28;20049;-57
2022/07/04 05:38:09;;;;;;;13.02;10.20;;;;;;;13.28;100.00;155172.31;4974248;28;20386;-57
2022/07/04 05:40:35;;;;;;;11.35;10.25;;;;;;;13.40;100.00;162375.41;4972588;28;20038;-57
2022/07/04 05:43:00;;;;;;;16.02;11.30;;;;;;;13.49;100.00;164093.41;4973986;28;20026;-58
2022/07/04 05:45:26;;;;;;;13.93;10.48;;;;;;;13.61;100.00;164124.50;4972901;28;20047;-57
2022/07/04 05:47:51;;;;;;;15.70;11.07;;;;;;;13.76;100.00;164163.75;4973986;28;20023;-57
2022/07/04 05:50:16;;;;;;;13.82;9.65;;;;;;;13.89;100.00;164196.19;4972639;28;20089;-57
2022/07/04 05:52:42;;;;;;;16.02;9.63;;;;;;;14.01;100.00;164227.31;4974235;28;20033;-57
2022/07/04 05:55:07;;;;;;;13.65;10.05;;;;;;;14.12;100.00;164257.03;4971998;28;20406;-57
2022/07/04 05:57:34;;;;;;;20.80;9.55;;;;;;;14.20;100.00;164278.69;4974120;28;20027;-57
2022/07/04 05:59:59;;;;;;;12.65;9.60;;;;;;;14.36;100.00;164319.28;4972324;28;20034;-57
2022/07/04 06:02:24;;;;;;;12.10;9.18;;;;;;;14.47;100.00;164349.06;4973748;28;20031;-57
2022/07/04 06:04:50;;;;;;;12.05;9.55;;;;;;;14.66;100.00;164397.81;4972175;28;20410;-58
2022/07/04 06:07:16;;;;;;;17.67;11.25;;;;;;;14.78;100.00;164430.25;4973660;28;20034;-58
2022/07/04 06:09:41;;;;;;;10.48;7.03;;;;;;;14.94;100.00;164472.25;4972127;28;20054;-58
2022/07/04 06:12:07;;;;;;;8.65;7.70;;;;;;;15.09;100.00;164511.47;4972302;28;20034;-57
2022/07/04 06:14:32;;;;;;;15.25;7.15;;;;;;;15.20;100.00;164541.28;4981221;28;20113;-57
2022/07/04 06:16:58;;;;;;;9.73;8.23;;;;;;;15.36;100.00;164581.88;4976508;28;20042;-58
2022/07/04 06:19:23;;;;;;;10.95;6.53;;;;;;;15.53;100.00;164626.56;4972726;28;20104;-58
2022/07/04 06:21:48;;;;;;;9.65;6.68;;;;;;;15.67;100.00;164664.47;4971096;28;20514;-58
2022/07/04 06:24:14;;;;;;;11.95;7.55;;;;;;;15.79;100.00;164695.59;4972435;28;20404;-58
2022/07/04 06:26:40;;;;;;;14.25;8.82;;;;;;;16.01;100.00;164753.84;4971990;28;20127;-58
2022/07/04 06:29:05;;;;;;;8.60;6.45;;;;;;;16.21;100.00;164803.97;4978328;28;20053;-57
2022/07/04 06:31:31;;;;;;;10.35;6.95;;;;;;;16.43;100.00;164863.56;4983333;28;20046;-58
2022/07/04 06:36:40;;;;;;;14.77;7.63;;;;;;;17.06;100.00;165027.53;4990940;28;20080;-58
2022/07/04 06:39:05;;;;;;;8.73;6.05;;;;;;;17.34;100.00;165100.75;4992040;28;20026;-57
2022/07/04 06:41:31;;;;;;;9.63;6.55;;;;;;;17.50;100.00;165142.72;4990897;28;20439;-60
2022/07/04 06:43:56;;;;;;;8.07;6.00;;;;;;;17.80;100.00;165221.34;4992216;28;20030;-58
2022/07/04 06:46:21;;;;;;;12.07;6.28;;;;;;;18.02;100.00;165281.06;4990701;28;20038;-58
2022/07/04 06:48:47;;;;;;;10.60;5.35;;;;;;;18.28;100.00;165347.47;4992423;28;20414;-58
2022/07/04 06:51:13;;;;;;;9.05;5.90;;;;;;;18.44;100.00;165389.50;4990744;28;20106;-58
2022/07/04 06:53:40;;;;;;;7.10;4.45;;;;;;;18.60;100.00;165431.56;4992058;28;20109;-58
2022/07/04 06:56:06;;;;;;;7.57;5.22;;;;;;;18.99;100.00;165536.03;4990672;28;20045;-58
2022/07/04 06:58:31;;;;;;;6.18;4.82;;;;;;;19.13;100.00;165571.31;4992211;28;20027;-58
2022/07/04 07:00:56;;;;;;;13.38;6.15;;;;;;;19.20;100.00;165590.28;4990295;28;20046;-58
2022/07/04 07:03:22;;;;;;;12.20;5.13;;;;;;;19.24;100.00;165601.16;4992047;28;20046;-58
2022/07/04 07:05:47;;;;;;;6.43;3.63;;;;;;;19.20;100.00;165590.28;4990614;28;20054;-59
2022/07/04 07:08:12;;;;;;;7.35;4.28;;;;;;;19.06;100.00;165553.69;4991545;28;20026;-58
2022/07/04 07:10:38;;;;;;;8.63;3.83;;;;;;;19.08;100.00;165557.75;4990219;28;20391;-58
2022/07/04 07:13:03;;;;;;;5.95;3.08;;;;;;;19.07;100.00;165555.03;4990799;28;20044;-59
2022/07/04 07:15:31;;;;;;;9.95;3.63;;;;;;;18.94;100.00;165522.50;4986570;28;20512;-58
2022/07/04 07:17:56;;;;;;;6.73;4.37;;;;;;;18.88;100.00;165506.13;4973380;28;20061;-58
2022/07/04 07:20:21;;;;;;;6.57;3.25;;;;;;;19.06;100.00;165552.31;4971005;28;20062;-58
2022/07/04 07:22:47;;;;;;;7.22;3.90;;;;;;;19.12;100.00;165568.59;4990209;28;20033;-58
2022/07/04 07:25:13;;;;;;;4.45;4.00;;;;;;;19.26;100.00;165605.22;4988876;28;20058;-58
2022/07/04 07:27:40;;;;;;;7.90;3.67;;;;;;;19.42;100.00;165648.66;4990819;28;20093;-58
2022/07/04 07:30:06;;;;;;;8.15;5.38;;;;;;;19.49;100.00;165666.25;4989457;28;20042;-58
2022/07/04 07:32:32;;;;;;;6.35;4.15;;;;;;;19.78;100.00;165742.25;4990721;28;20037;-58
2022/07/04 07:34:57;;;;;;;9.80;4.70;;;;;;;19.92;100.00;165780.28;4989933;28;20038;-58
2022/07/04 07:37:22;;;;;;;10.13;4.43;;;;;;;19.89;100.00;165772.16;4991405;28;20386;-58
2022/07/04 07:39:49;;;;;;;4.93;4.15;;;;;;;19.85;100.00;165759.94;4990204;28;20029;-58
2022/07/04 07:42:15;;;;;;;6.35;4.10;;;;;;;19.79;100.00;165744.97;4991497;28;20022;-58
2022/07/04 07:44:40;;;;;;;8.45;5.10;;;;;;;19.96;100.00;165791.16;4989825;28;20026;-58
2022/07/04 07:47:06;;;;;;;6.72;3.45;;;;;;;19.97;100.00;165792.50;4991186;28;20026;-58
2022/07/04 07:49:31;;;;;;;9.27;3.95;;;;;;;19.94;100.00;165784.38;4990005;28;20022;-58
2022/07/04 07:51:57;;;;;;;6.60;4.13;;;;;;;19.52;100.00;165674.41;4991082;28;20037;-58
2022/07/04 07:54:22;;;;;;;9.13;3.50;;;;;;;19.54;100.00;165679.84;4991093;28;20026;-58
2022/07/04 07:56:47;;;;;;;6.97;3.83;;;;;;;19.63;100.00;165704.25;4989850;28;20129;-58
2022/07/04 07:59:13;;;;;;;10.02;4.20;;;;;;;20.01;100.00;165803.38;4991134;28;20478;-58
2022/07/04 08:01:38;;;;;;;5.32;3.30;;;;;;;20.26;100.00;165869.88;4989241;28;20062;-57
2022/07/04 08:06:47;;;;;;;10.82;3.92;;;;;;;20.07;100.00;165818.28;4992866;28;20405;-57
2022/07/04 08:09:14;;;;;;;4.97;3.08;;;;;;;19.90;100.00;165773.50;5004533;28;20022;-58
2022/07/04 08:11:40;;;;;;;8.32;4.65;;;;;;;19.78;100.00;165742.25;4998702;28;20056;-57
2022/07/04 08:14:07;;;;;;;8.10;3.38;;;;;;;19.87;100.00;165766.72;4997720;28;20031;-58
2022/07/04 08:16:33;;;;;;;8.50;3.42;;;;;;;20.50;100.00;165932.34;5005408;28;20040;-58
2022/07/04 08:18:58;;;;;;;7.40;3.13;;;;;;;20.95;100.00;166049.16;4994060;28;20018;-58
2022/07/04 08:21:23;;;;;;;8.10;3.95;;;;;;;21.50;100.00;166194.44;5001983;28;20046;-58
2022/07/04 08:23:49;;;;;;;10.82;3.40;;;;;;;21.82;100.00;166280.06;5001015;28;20458;-58
2022/07/04 08:26:14;;;;;;;11.68;3.42;;;;;;;21.92;100.00;166304.53;4999098;28;20266;-57
2022/07/04 08:28:39;;;;;;;7.50;2.63;;;;;;;21.69;100.00;166246.09;5010999;28;20050;-57
2022/07/04 08:31:05;;;;;;;8.55;3.22;;;;;;;21.32;100.00;166146.91;4993230;28;20450;-57
2022/07/04 08:33:31;;;;;;;6.25;2.30;;;;;;;21.74;100.00;166257.00;5008982;28;20026;-57
2022/07/04 08:35:57;;;;;;;4.07;2.13;;;;;;;22.09;100.00;166350.69;5013071;28;20053;-57
2022/07/04 08:38:23;;;;;;;8.02;2.50;;;;;;;22.36;100.00;166421.38;4991534;28;20031;-57
2022/07/04 08:40:51;;;;;;;6.50;2.70;;;;;;;22.37;100.00;166424.09;4975669;28;20163;-57
2022/07/04 08:43:22;;;;;;;4.43;2.10;;;;;;;21.93;100.00;166307.25;4994491;28;20033;-56
2022/07/04 08:45:47;;;;;;;5.38;3.40;;;;;;;21.24;100.00;166127.91;4992849;28;20053;-55
2022/07/04 08:48:13;;;;;;;3.30;2.35;;;;;;;20.91;100.00;166040.97;5006044;28;20030;-57
2022/07/04 08:50:51;;;;;;;8.60;2.47;;;;;;;20.99;100.00;166061.38;5012856;28;20045;-58
2022/07/04 08:53:19;;;;;;;3.85;2.15;;;;;;;21.17;100.00;166107.50;5013734;28;20540;-57
2022/07/04 08:58:31;;;;;;;7.88;3.78;;;;;;;21.65;100.00;166233.84;4994248;28;20037;-56
2022/07/04 09:01:04;;;;;;;8.35;2.70;;;;;;;21.74;100.00;166258.31;4992573;28;20453;-55
2022/07/04 09:03:30;;;;;;;7.53;2.40;;;;;;;22.24;100.00;166388.72;4994327;28;20048;-55
2022/07/04 09:05:57;;;;;;;6.35;3.13;;;;;;;21.83;100.00;166282.78;4993008;28;20573;-58
2022/07/04 09:08:23;;;;;;;4.55;1.92;;;;;;;21.77;100.00;166266.50;4993424;28;20026;-58
2022/07/04 09:10:50;;;;;;;6.95;2.72;;;;;;;22.02;100.00;166331.66;4992900;28;20129;-57
2022/07/04 09:13:19;;;;;;;7.22;2.60;;;;;;;22.48;100.00;166454.00;4994184;28;20470;-57
2022/07/04 09:15:47;;;;;;;7.15;2.70;;;;;;;22.97;100.00;166581.78;4992437;28;20039;-58
2022/07/04 09:18:20;;;;;;;6.82;2.33;;;;;;;22.72;100.00;166515.16;4998208;28;20032;-55
2022/07/04 09:20:45;;;;;;;11.98;2.72;;;;;;;22.44;100.00;166441.78;4984409;28;20050;-55
2022/07/04 09:23:22;;;;;;;12.63;4.47;;;;;;;21.99;100.00;166323.53;4973642;28;20027;-56
2022/07/04 09:25:49;;;;;;;17.50;4.88;;;;;;;21.97;100.00;166318.09;4973296;28;20053;-55
2022/07/04 09:28:28;;;;;;;31.75;5.03;;;;;;;22.54;100.00;166467.59;4973900;28;20082;-57
2022/07/04 09:30:53;;;;;;;36.67;7.07;;;;;;;22.67;100.00;166502.97;4972962;28;20043;-57
2022/07/04 09:33:19;;;;;;;13.63;3.78;;;;;;;23.32;100.00;166672.88;4974282;28;20033;-57
2022/07/04 09:35:45;;;;;;;7.53;2.63;;;;;;;23.76;100.00;166791.19;4972085;28;20401;-57
2022/07/04 09:38:11;;;;;;;15.13;3.75;;;;;;;24.18;100.00;166900.00;4974290;28;20027;-57
2022/07/04 09:43:22;;;;;;;6.25;2.30;;;;;;;24.14;100.00;166889.13;4973835;28;20050;-57
2022/07/04 09:45:56;;;;;;;11.55;3.45;;;;;;;24.20;100.00;166905.44;4972861;28;20035;-58
2022/07/04 09:48:22;;;;;;;5.10;2.58;;;;;;;23.60;100.00;166747.66;4974184;28;20050;-57
2022/07/04 09:50:47;;;;;;;7.38;2.15;;;;;;;22.72;100.00;166515.16;4972430;28;20047;-55
2022/07/04 09:53:13;;;;;;;8.13;3.03;;;;;;;22.01;100.00;166328.94;4974008;28;20081;-55
2022/07/04 09:55:39;;;;;;;6.22;2.33;;;;;;;21.62;100.00;166227.06;4972581;28;20101;-58
2022/07/04 09:58:08;;;;;;;4.72;1.80;;;;;;;21.10;100.00;166089.88;4973572;28;20034;-58
2022/07/04 10:00:35;;;;;;;6.18;2.75;;;;;;;21.19;100.00;166114.28;4972570;28;20467;-57
2022/07/04 10:03:25;;;;;;;3.53;2.07;;;;;;;20.95;100.00;166050.47;4973828;28;20041;-57
2022/07/04 10:06:09;;;;;;;7.05;2.67;;;;;;;20.78;100.00;166005.69;4972085;28;20465;-57
2022/07/04 10:08:35;;;;;;;2.95;1.88;;;;;;;20.71;100.00;165986.63;4977357;28;20030;-58
2022/07/04 10:11:03;;;;;;;4.68;1.90;;;;;;;20.59;100.00;165955.41;4981575;28;20088;-57
2022/07/04 10:13:28;;;;;;;5.47;2.53;;;;;;;20.47;100.00;165924.16;4979995;28;20031;-57
2022/07/04 10:15:54;;;;;;;4.53;2.03;;;;;;;20.27;100.00;165871.22;4991582;28;20043;-57
2022/07/04 10:18:20;;;;;;;10.57;2.47;;;;;;;20.50;100.00;165930.94;4992257;28;20034;-58
2022/07/04 10:20:48;;;;;;;6.38;3.42;;;;;;;20.64;100.00;165967.63;4987895;28;20042;-57
2022/07/04 10:23:14;;;;;;;5.05;2.60;;;;;;;21.46;100.00;166184.94;4973100;28;20101;-57
2022/07/04 10:25:41;;;;;;;7.93;2.65;;;;;;;21.62;100.00;166225.75;4972302;28;20072;-57
2022/07/04 10:28:07;;;;;;;6.90;3.05;;;;;;;21.39;100.00;166165.94;4973050;28;20058;-57
2022/07/04 10:30:35;;;;;;;8.00;2.72;;;;;;;21.05;100.00;166076.28;4971973;28;20086;-56
2022/07/04 10:33:03;;;;;;;8.25;3.38;;;;;;;20.93;100.00;166045.03;4973069;28;20027;-57
2022/07/04 10:36:03;;;;;;;8.30;3.22;;;;;;;20.89;100.00;166035.53;4971377;28;20410;-57
2022/07/04 10:38:30;;;;;;;8.57;2.13;;;;;;;20.87;100.00;166030.13;4973097;28;20418;-57
2022/07/04 10:41:03;;;;;;;6.57;2.83;;;;;;;20.96;100.00;166053.22;4991976;28;20060;-56
2022/07/04 10:43:34;;;;;;;8.63;2.50;;;;;;;21.44;100.00;166179.50;4996149;28;20650;-57
2022/07/04 10:46:02;;;;;;;5.35;2.60;;;;;;;22.12;100.00;166358.84;4989575;28;20690;-56
2022/07/04 10:48:28;;;;;;;10.50;3.33;;;;;;;22.70;100.00;166511.09;4990778;28;20117;-56
2022/07/04 10:51:04;;;;;;;8.40;2.58;;;;;;;23.10;100.00;166617.13;4979043;28;20048;-56
2022/07/04 10:53:30;;;;;;;13.77;4.22;;;;;;;23.37;100.00;166687.84;4972276;28;20433;-56
2022/07/04 10:56:18;;;;;;;7.55;3.28;;;;;;;23.55;100.00;166734.06;4970853;28;20118;-56
2022/07/04 10:58:43;;;;;;;6.90;2.22;;;;;;;23.03;100.00;166596.69;4971923;28;20034;-57
2022/07/04 11:01:16;;;;;;;4.80;2.17;;;;;;;22.63;100.00;166492.06;4971015;28;20039;-57
2022/07/04 11:03:46;;;;;;;5.32;2.30;;;;;;;22.35;100.00;166419.97;4971452;28;20092;-57
2022/07/04 11:06:29;;;;;;;6.20;2.20;;;;;;;21.77;100.00;166266.50;4970795;28;20035;-57
2022/07/04 11:09:16;;;;;;;8.75;3.50;;;;;;;21.56;100.00;166210.72;4972870;28;20419;-57
2022/07/04 11:11:54;;;;;;;5.90;2.47;;;;;;;21.61;100.00;166224.34;4971334;28;20066;-56
2022/07/04 11:14:47;;;;;;;8.07;3.85;;;;;;;21.63;100.00;166228.47;4972111;28;20019;-57
2022/07/04 11:17:33;;;;;;;5.50;2.30;;;;;;;21.53;100.00;166202.56;4990372;28;20070;-57
2022/07/04 11:20:00;;;;;;;6.70;2.22;;;;;;;21.31;100.00;166144.19;4986352;28;20138;-57
2022/07/04 11:22:26;;;;;;;9.18;2.15;;;;;;;21.16;100.00;166104.78;4972511;28;20030;-57
2022/07/04 11:24:52;;;;;;;4.43;1.75;;;;;;;21.05;100.00;166077.66;4973906;28;20046;-57
2022/07/04 11:27:20;;;;;;;6.20;1.88;;;;;;;20.96;100.00;166051.88;4991040;28;20090;-57
2022/07/04 11:29:52;;;;;;;7.53;3.42;;;;;;;20.99;100.00;166059.97;4990527;28;20041;-56